createdAt,value
2017-07-02T00:00:31.330Z,82.60
2017-07-02T00:02:57.694Z,82.60
2017-07-02T00:05:23.883Z,82.80
2017-07-02T00:07:50.075Z,82.90
2017-07-02T00:10:16.258Z,82.70
2017-07-02T00:12:42.439Z,82.70
2017-07-02T00:15:08.636Z,82.70
2017-07-02T00:17:34.818Z,82.80
2017-07-02T00:20:00.986Z,82.90
2017-07-02T00:22:27.139Z,83.10
2017-07-02T00:24:53.361Z,83.60
2017-07-02T00:27:19.545Z,83.40
2017-07-02T00:29:45.742Z,83.30
2017-07-02T00:32:11.935Z,83.20
2017-07-02T00:34:38.086Z,83.70
2017-07-02T00:37:04.288Z,83.60
2017-07-02T00:39:30.496Z,83.60
2017-07-02T00:41:56.631Z,83.50
2017-07-02T00:44:22.840Z,83.30
2017-07-02T00:46:49.039Z,83.00
2017-07-02T00:49:15.954Z,84.40
2017-07-02T00:51:42.106Z,83.70
2017-07-02T00:54:08.330Z,84.30
2017-07-02T00:56:34.508Z,84.30
2017-07-02T00:59:00.731Z,83.90
2017-07-02T01:01:26.987Z,84.10
2017-07-02T01:03:53.527Z,83.90
2017-07-02T01:06:19.678Z,84.60
2017-07-02T01:08:45.852Z,84.80
2017-07-02T01:11:12.043Z,84.70
2017-07-02T01:13:38.951Z,85.00
2017-07-02T01:16:05.133Z,84.30
2017-07-02T01:18:32.071Z,84.30
2017-07-02T01:20:59.040Z,84.50
2017-07-02T01:23:25.214Z,84.50
2017-07-02T01:25:51.356Z,83.80
2017-07-02T01:28:17.523Z,84.20
2017-07-02T01:30:43.718Z,84.20
2017-07-02T01:33:10.665Z,83.80
2017-07-02T01:35:37.587Z,83.80
2017-07-02T01:38:03.757Z,83.10
2017-07-02T01:40:30.727Z,83.90
2017-07-02T01:42:56.935Z,83.20
2017-07-02T01:45:23.155Z,83.10
2017-07-02T01:47:50.100Z,83.30
2017-07-02T01:50:17.067Z,83.00
2017-07-02T01:52:43.283Z,83.00
2017-07-02T01:55:09.487Z,83.70
2017-07-02T01:57:35.745Z,82.90
2017-07-02T02:00:01.950Z,83.10
2017-07-02T02:02:41.280Z,82.20
2017-07-02T02:05:07.502Z,82.70
2017-07-02T02:07:33.702Z,83.30
2017-07-02T02:09:59.893Z,83.30
2017-07-02T02:12:26.068Z,83.50
2017-07-02T02:17:28.114Z,83.40
2017-07-02T02:19:54.292Z,82.70
2017-07-02T02:22:20.498Z,83.30
2017-07-02T02:24:46.682Z,83.00
2017-07-02T02:27:13.585Z,82.60
2017-07-02T02:29:39.750Z,82.60
2017-07-02T02:32:06.670Z,82.40
2017-07-02T02:34:32.855Z,82.30
2017-07-02T02:36:59.010Z,82.60
2017-07-02T02:39:25.181Z,82.40
2017-07-02T02:41:52.081Z,82.80
2017-07-02T02:44:18.278Z,82.60
2017-07-02T02:46:44.453Z,83.00
2017-07-02T02:49:10.647Z,83.10
2017-07-02T02:51:36.841Z,83.10
2017-07-02T02:54:03.756Z,82.60
2017-07-02T02:56:29.930Z,82.60
2017-07-02T02:58:56.115Z,82.40
2017-07-02T03:01:22.262Z,82.90
2017-07-02T03:03:49.168Z,81.10
2017-07-02T03:06:15.367Z,81.10
2017-07-02T03:08:41.548Z,81.30
2017-07-02T03:11:07.735Z,80.40
2017-07-02T03:13:33.895Z,80.40
2017-07-02T03:16:00.095Z,80.40
2017-07-02T03:18:26.296Z,80.30
2017-07-02T03:20:52.486Z,79.80
2017-07-02T03:23:19.430Z,79.60
2017-07-02T03:25:45.642Z,79.70
2017-07-02T03:28:11.826Z,80.00
2017-07-02T03:30:38.048Z,79.10
2017-07-02T03:33:04.215Z,77.90
2017-07-02T03:35:30.379Z,77.50
2017-07-02T03:37:56.557Z,77.80
2017-07-02T03:40:22.994Z,78.60
2017-07-02T03:42:49.189Z,78.20
2017-07-02T03:45:16.113Z,78.50
2017-07-02T03:47:42.295Z,78.50
2017-07-02T03:50:08.479Z,78.40
2017-07-02T03:52:34.635Z,78.40
2017-07-02T03:55:00.785Z,78.80
2017-07-02T03:57:26.956Z,78.90
2017-07-02T03:59:53.860Z,79.70
2017-07-02T04:02:20.046Z,78.90
2017-07-02T04:04:46.195Z,78.40
2017-07-02T04:07:12.345Z,77.40
2017-07-02T04:09:38.522Z,76.90
2017-07-02T04:12:05.428Z,78.10
2017-07-02T04:14:31.615Z,78.30
2017-07-02T04:16:57.790Z,78.80
2017-07-02T04:19:23.970Z,77.90
2017-07-02T04:21:50.182Z,78.60
2017-07-02T04:24:17.092Z,78.30
2017-07-02T04:26:43.269Z,78.30
2017-07-02T04:29:09.427Z,79.00
2017-07-02T04:31:35.607Z,79.60
2017-07-02T04:34:02.535Z,79.10
2017-07-02T04:36:28.796Z,79.00
2017-07-02T04:38:55.008Z,78.00
2017-07-02T04:41:21.184Z,78.10
2017-07-02T04:43:47.358Z,78.70
2017-07-02T04:46:14.296Z,78.70
2017-07-02T04:48:40.494Z,76.80
2017-07-02T04:51:06.682Z,77.00
2017-07-02T04:53:32.839Z,78.00
2017-07-02T04:55:59.030Z,77.60
2017-07-02T04:58:25.944Z,79.50
2017-07-02T05:00:52.106Z,79.40
2017-07-02T05:03:18.350Z,78.50
2017-07-02T05:05:44.532Z,75.90
2017-07-02T05:08:10.698Z,76.50
2017-07-02T05:10:36.843Z,76.30
2017-07-02T05:13:03.022Z,75.60
2017-07-02T05:15:29.210Z,76.90
2017-07-02T05:17:55.413Z,77.10
2017-07-02T05:20:21.577Z,76.90
2017-07-02T05:22:47.726Z,76.70
2017-07-02T05:25:13.882Z,77.80
2017-07-02T05:27:40.047Z,77.50
2017-07-02T05:30:06.249Z,75.80
2017-07-02T05:32:32.432Z,77.50
2017-07-02T05:34:58.594Z,78.10
2017-07-02T05:37:24.775Z,76.30
2017-07-02T05:39:50.958Z,75.80
2017-07-02T05:42:17.167Z,76.30
2017-07-02T05:44:44.118Z,77.90
2017-07-02T05:47:11.302Z,76.50
2017-07-02T05:49:37.452Z,76.40
2017-07-02T05:52:03.612Z,76.50
2017-07-02T05:54:30.572Z,73.80
2017-07-02T05:56:57.515Z,74.20
2017-07-02T05:59:24.434Z,74.30
2017-07-02T06:01:50.676Z,74.60
2017-07-02T06:04:17.599Z,75.00
2017-07-02T06:06:43.826Z,74.30
2017-07-02T06:09:10.027Z,75.30
2017-07-02T06:11:36.208Z,75.00
2017-07-02T06:14:03.119Z,75.00
2017-07-02T06:16:29.325Z,75.30
2017-07-02T06:18:55.542Z,75.10
2017-07-02T06:21:21.730Z,75.90
2017-07-02T06:23:48.659Z,76.50
2017-07-02T06:26:14.839Z,76.50
2017-07-02T06:28:41.102Z,75.50
2017-07-02T06:31:07.282Z,75.80
2017-07-02T06:33:34.275Z,76.20
2017-07-02T06:36:00.498Z,76.20
2017-07-02T06:38:26.672Z,75.80
2017-07-02T06:40:52.850Z,75.00
2017-07-02T06:43:19.044Z,75.30
2017-07-02T06:45:46.021Z,76.00
2017-07-02T06:48:12.232Z,75.10
2017-07-02T06:50:38.398Z,76.10
2017-07-02T06:53:04.548Z,74.40
2017-07-02T06:55:30.723Z,74.60
2017-07-02T06:57:56.927Z,75.80
2017-07-02T07:00:23.873Z,70.70
2017-07-02T07:02:50.822Z,67.10
2017-07-02T07:05:17.739Z,65.90
2017-07-02T07:07:43.975Z,65.70
2017-07-02T07:10:10.149Z,65.70
2017-07-02T07:12:36.353Z,59.70
2017-07-02T07:15:03.354Z,62.00
2017-07-02T07:17:30.266Z,62.50
2017-07-02T07:19:56.521Z,62.60
2017-07-02T07:22:22.774Z,62.60
2017-07-02T07:24:48.938Z,63.00
2017-07-02T07:27:15.107Z,60.90
2017-07-02T07:29:41.329Z,61.90
2017-07-02T07:32:07.516Z,62.20
2017-07-02T07:34:34.463Z,58.50
2017-07-02T07:37:01.392Z,58.40
2017-07-02T07:39:27.613Z,58.50
2017-07-02T07:41:53.781Z,59.80
2017-07-02T07:44:19.981Z,57.20
2017-07-02T07:46:46.143Z,56.50
2017-07-02T07:49:12.333Z,57.30
2017-07-02T07:51:39.271Z,55.70
2017-07-02T07:54:05.439Z,54.80
2017-07-02T07:56:31.666Z,52.50
2017-07-02T07:58:57.893Z,53.40
2017-07-02T08:01:24.055Z,57.10
2017-07-02T08:03:50.253Z,57.00
2017-07-02T08:06:16.464Z,56.90
2017-07-02T08:08:43.479Z,56.40
2017-07-02T08:11:09.986Z,56.40
2017-07-02T08:13:36.166Z,55.90
2017-07-02T08:16:03.138Z,57.10
2017-07-02T08:18:29.304Z,57.00
2017-07-02T08:20:55.503Z,59.10
2017-07-02T08:23:21.698Z,58.30
2017-07-02T08:25:48.629Z,59.70
2017-07-02T08:28:14.862Z,59.70
2017-07-02T08:30:41.125Z,60.00
2017-07-02T08:33:07.327Z,60.50
2017-07-02T08:35:34.257Z,59.60
2017-07-02T08:38:00.447Z,57.20
2017-07-02T08:40:26.652Z,57.50
2017-07-02T08:42:52.808Z,58.20
2017-07-02T08:45:19.033Z,58.90
2017-07-02T08:47:45.211Z,59.40
2017-07-02T08:50:12.124Z,58.70
2017-07-02T08:52:38.319Z,57.90
2017-07-02T08:55:04.460Z,57.60
2017-07-02T08:57:30.673Z,58.70
2017-07-02T08:59:56.863Z,58.70
2017-07-02T09:02:24.529Z,58.80
2017-07-02T09:04:50.714Z,58.80
2017-07-02T09:07:16.899Z,59.50
2017-07-02T09:09:43.840Z,59.40
2017-07-02T09:12:10.726Z,60.30
2017-07-02T09:14:36.901Z,60.30
2017-07-02T09:17:03.119Z,60.80
2017-07-02T09:19:29.284Z,61.70
2017-07-02T09:21:55.483Z,61.50
2017-07-02T09:24:21.672Z,63.70
2017-07-02T09:26:47.925Z,61.10
2017-07-02T09:29:14.108Z,61.60
2017-07-02T09:31:55.230Z,61.70
2017-07-02T09:34:21.426Z,62.70
2017-07-02T09:36:47.640Z,62.30
2017-07-02T09:39:13.803Z,62.50
2017-07-02T09:41:40.070Z,62.80
2017-07-02T09:44:07.032Z,61.30
2017-07-02T09:46:33.202Z,61.20
2017-07-02T09:48:59.382Z,63.20
2017-07-02T09:51:25.552Z,62.40
2017-07-02T09:53:51.764Z,62.60
2017-07-02T09:56:18.023Z,63.00
2017-07-02T09:58:44.191Z,61.10
2017-07-02T10:01:11.102Z,62.70
2017-07-02T10:03:37.414Z,62.60
2017-07-02T10:06:03.676Z,64.20
2017-07-02T10:08:29.891Z,64.30
2017-07-02T10:10:56.205Z,64.70
2017-07-02T10:13:22.404Z,64.90
2017-07-02T10:15:48.582Z,64.20
2017-07-02T10:18:14.741Z,65.80
2017-07-02T10:20:40.942Z,67.00
2017-07-02T10:23:07.145Z,63.50
2017-07-02T10:25:33.350Z,64.60
2017-07-02T10:27:59.571Z,62.40
2017-07-02T10:30:25.762Z,62.40
2017-07-02T10:32:51.935Z,62.40
2017-07-02T10:35:18.102Z,63.10
2017-07-02T10:37:44.293Z,64.60
2017-07-02T10:40:10.474Z,63.50
2017-07-02T10:42:36.670Z,63.10
2017-07-02T10:45:02.883Z,63.40
2017-07-02T10:47:29.103Z,60.80
2017-07-02T10:49:55.345Z,60.70
2017-07-02T10:52:21.520Z,60.50
2017-07-02T10:54:47.700Z,61.10
2017-07-02T10:57:13.940Z,61.40
2017-07-02T10:59:40.128Z,61.50
2017-07-02T11:02:21.636Z,59.50
2017-07-02T11:04:47.817Z,60.20
2017-07-02T11:07:14.046Z,62.20
2017-07-02T11:09:40.261Z,59.40
2017-07-02T11:12:06.443Z,63.20
2017-07-02T11:14:32.646Z,58.60
2017-07-02T11:16:58.835Z,59.40
2017-07-02T11:19:25.016Z,58.20
2017-07-02T11:21:51.246Z,59.70
2017-07-02T11:24:17.416Z,57.80
2017-07-02T11:26:43.602Z,58.30
2017-07-02T11:29:09.868Z,57.20
2017-07-02T11:31:36.019Z,59.20
2017-07-02T11:34:02.179Z,58.80
2017-07-02T11:36:29.126Z,56.40
2017-07-02T11:38:55.694Z,58.10
2017-07-02T11:41:21.872Z,56.90
2017-07-02T11:43:48.076Z,57.70
2017-07-02T11:46:14.314Z,58.10
2017-07-02T11:48:40.544Z,54.80
2017-07-02T11:51:06.728Z,53.30
2017-07-02T11:53:32.914Z,55.00
2017-07-02T11:55:59.148Z,55.00
2017-07-02T11:58:25.361Z,55.40
2017-07-02T12:00:51.651Z,54.60
2017-07-02T12:03:17.938Z,53.80
2017-07-02T12:05:44.128Z,55.80
2017-07-02T12:08:10.347Z,56.80
2017-07-02T12:10:36.555Z,53.00
2017-07-02T12:13:02.724Z,52.90
2017-07-02T12:15:28.889Z,54.20
2017-07-02T12:17:55.154Z,56.00
2017-07-02T12:20:21.400Z,55.60
2017-07-02T12:22:47.642Z,54.70
2017-07-02T12:25:14.285Z,55.70
2017-07-02T12:27:41.115Z,54.30
2017-07-02T12:30:07.351Z,55.10
2017-07-02T12:32:33.587Z,52.60
2017-07-02T12:34:59.839Z,53.10
2017-07-02T12:37:26.952Z,52.90
2017-07-02T12:39:53.222Z,53.30
2017-07-02T12:42:20.240Z,54.10
2017-07-02T12:44:46.465Z,54.20
2017-07-02T12:47:12.723Z,54.50
2017-07-02T12:49:38.883Z,53.80
2017-07-02T12:52:05.066Z,53.00
2017-07-02T12:54:31.277Z,54.20
2017-07-02T12:56:57.465Z,54.60
2017-07-02T12:59:23.699Z,54.80
2017-07-02T13:01:49.847Z,54.80
2017-07-02T13:04:16.205Z,55.70
2017-07-02T13:06:42.385Z,55.60
2017-07-02T13:09:08.628Z,56.10
2017-07-02T13:11:34.854Z,55.20
2017-07-02T13:14:01.084Z,54.80
2017-07-02T13:16:27.320Z,55.40
2017-07-02T13:18:53.952Z,56.30
2017-07-02T13:21:20.405Z,55.70
2017-07-02T13:23:46.659Z,54.80
2017-07-02T13:26:12.885Z,55.40
2017-07-02T13:28:39.086Z,57.10
2017-07-02T13:31:05.565Z,56.60
2017-07-02T13:33:32.238Z,56.80
2017-07-02T13:35:58.399Z,58.70
2017-07-02T13:38:26.084Z,55.50
2017-07-02T13:40:53.118Z,55.40
2017-07-02T13:43:19.406Z,57.30
2017-07-02T13:45:45.754Z,57.50
2017-07-02T13:48:11.922Z,58.00
2017-07-02T13:50:38.103Z,57.70
2017-07-02T13:53:04.297Z,57.90
2017-07-02T13:55:31.225Z,57.70
2017-07-02T13:57:58.245Z,58.00
2017-07-02T14:00:24.515Z,58.60
2017-07-02T14:02:51.431Z,59.90
2017-07-02T14:05:17.653Z,60.10
2017-07-02T14:07:43.937Z,60.50
2017-07-02T14:10:10.151Z,61.10
2017-07-02T14:12:37.144Z,62.20
2017-07-02T14:15:03.317Z,61.90
2017-07-02T14:17:30.292Z,63.20
2017-07-02T14:19:57.663Z,62.70
2017-07-02T14:22:24.852Z,62.70
2017-07-02T14:24:51.034Z,62.70
2017-07-02T14:27:17.233Z,62.20
2017-07-02T14:29:44.193Z,63.00
2017-07-02T14:32:10.615Z,62.80
2017-07-02T14:34:37.587Z,63.70
2017-07-02T14:37:03.851Z,63.60
2017-07-02T14:39:30.087Z,62.60
2017-07-02T14:41:56.408Z,63.00
2017-07-02T14:44:22.578Z,63.00
2017-07-02T14:46:49.873Z,63.40
2017-07-02T14:49:16.794Z,63.20
2017-07-02T14:51:43.368Z,63.90
2017-07-02T14:54:15.783Z,63.30
2017-07-02T14:56:42.720Z,63.90
2017-07-02T14:59:08.946Z,63.70
2017-07-02T15:01:35.184Z,64.30
2017-07-02T15:04:02.250Z,63.10
2017-07-02T15:06:29.446Z,64.60
2017-07-02T15:08:56.289Z,63.60
2017-07-02T15:11:23.949Z,64.30
2017-07-02T15:13:51.057Z,66.00
2017-07-02T15:16:17.976Z,64.40
2017-07-02T15:18:44.200Z,64.30
2017-07-02T15:21:10.411Z,64.50
2017-07-02T15:23:36.635Z,64.30
2017-07-02T15:26:02.833Z,63.70
2017-07-02T15:28:29.122Z,64.00
2017-07-02T15:30:55.316Z,64.10
2017-07-02T15:33:21.522Z,64.30
2017-07-02T15:35:47.770Z,63.50
2017-07-02T15:38:13.954Z,64.00
2017-07-02T15:40:40.921Z,64.30
2017-07-02T15:43:07.113Z,63.70
2017-07-02T15:45:33.348Z,64.00
2017-07-02T15:48:00.214Z,64.80
2017-07-02T15:50:26.413Z,64.60
2017-07-02T15:52:52.655Z,64.00
2017-07-02T15:55:18.921Z,64.60
2017-07-02T15:57:45.110Z,65.40
2017-07-02T16:00:11.302Z,64.70
2017-07-02T16:02:37.476Z,64.60
2017-07-02T16:05:04.426Z,65.30
2017-07-02T16:07:31.364Z,65.60
2017-07-02T16:09:58.279Z,65.70
2017-07-02T16:12:24.503Z,65.20
2017-07-02T16:14:50.739Z,66.30
2017-07-02T16:17:16.948Z,66.30
2017-07-02T16:19:43.173Z,66.20
2017-07-02T16:22:09.400Z,65.60
2017-07-02T16:24:35.862Z,65.60
2017-07-02T16:27:02.137Z,65.30
2017-07-02T16:29:28.467Z,64.70
2017-07-02T16:31:54.713Z,64.30
2017-07-02T16:34:20.979Z,64.20
2017-07-02T16:36:47.337Z,63.80
2017-07-02T16:39:14.284Z,63.50
2017-07-02T16:41:41.268Z,64.50
2017-07-02T16:44:07.532Z,63.10
2017-07-02T16:46:33.755Z,63.70
2017-07-02T16:49:00.012Z,63.60
2017-07-02T16:51:26.494Z,63.20
2017-07-02T16:53:52.811Z,63.10
2017-07-02T16:56:19.020Z,62.90
2017-07-02T16:58:45.991Z,64.10
2017-07-02T17:01:12.196Z,64.00
2017-07-02T17:03:39.261Z,63.60
2017-07-02T17:06:05.444Z,63.50
2017-07-02T17:08:31.671Z,63.80
2017-07-02T17:10:57.883Z,63.80
2017-07-02T17:13:24.070Z,63.00
2017-07-02T17:15:50.297Z,63.10
2017-07-02T17:18:17.238Z,63.60
2017-07-02T17:20:44.197Z,63.30
2017-07-02T17:23:10.442Z,63.30
2017-07-02T17:25:37.380Z,63.80
2017-07-02T17:28:03.587Z,64.30
2017-07-02T17:30:29.823Z,63.70
2017-07-02T17:32:56.862Z,63.80
2017-07-02T17:35:23.161Z,63.30
2017-07-02T17:37:49.443Z,64.00
2017-07-02T17:40:15.684Z,64.10
2017-07-02T17:42:41.895Z,64.50
2017-07-02T17:45:08.059Z,64.00
2017-07-02T17:47:34.338Z,63.40
2017-07-02T17:50:01.235Z,64.70
2017-07-02T17:52:27.444Z,64.10
2017-07-02T17:54:53.639Z,64.60
2017-07-02T17:57:19.833Z,64.60
2017-07-02T17:59:46.030Z,65.10
2017-07-02T18:02:12.256Z,64.80
2017-07-02T18:04:38.460Z,64.50
2017-07-02T18:07:05.375Z,64.60
2017-07-02T18:09:31.559Z,64.60
2017-07-02T18:11:57.772Z,65.10
2017-07-02T18:14:23.987Z,65.40
2017-07-02T18:16:50.985Z,65.10
2017-07-02T18:19:17.154Z,65.10
2017-07-02T18:21:44.178Z,65.10
2017-07-02T18:24:10.436Z,65.10
2017-07-02T18:26:37.328Z,66.20
2017-07-02T18:29:03.526Z,66.10
2017-07-02T18:31:29.721Z,65.50
2017-07-02T18:33:55.911Z,66.00
2017-07-02T18:36:22.063Z,66.10
2017-07-02T18:38:48.252Z,66.00
2017-07-02T18:41:14.492Z,66.80
2017-07-02T18:43:40.660Z,66.20
2017-07-02T18:46:06.831Z,66.70
2017-07-02T18:48:33.004Z,67.60
2017-07-02T18:50:59.224Z,67.10
2017-07-02T18:53:25.475Z,67.40
2017-07-02T18:55:51.684Z,67.60
2017-07-02T18:58:17.901Z,67.00
2017-07-02T19:00:44.140Z,67.60
2017-07-02T19:03:10.388Z,67.70
2017-07-02T19:05:36.599Z,66.50
2017-07-02T19:08:02.845Z,67.70
2017-07-02T19:10:29.031Z,67.60
2017-07-02T19:12:55.251Z,68.00
2017-07-02T19:15:21.447Z,67.40
2017-07-02T19:17:48.422Z,68.00
2017-07-02T19:20:14.694Z,66.90
2017-07-02T19:22:40.930Z,67.50
2017-07-02T19:25:07.930Z,67.40
2017-07-02T19:27:34.167Z,67.40
2017-07-02T19:30:00.356Z,67.60
2017-07-02T19:32:26.567Z,68.50
2017-07-02T19:34:52.750Z,68.40
2017-07-02T19:37:18.993Z,68.60
2017-07-02T19:39:45.228Z,68.10
2017-07-02T19:42:11.439Z,68.50
2017-07-02T19:44:37.656Z,68.50
2017-07-02T19:47:03.875Z,68.80
2017-07-02T19:49:30.859Z,68.20
2017-07-02T19:51:57.097Z,68.80
2017-07-02T19:54:23.303Z,69.20
2017-07-02T19:56:49.576Z,69.50
2017-07-02T19:59:15.791Z,69.70
2017-07-02T20:01:41.998Z,69.70
2017-07-02T20:04:08.252Z,70.60
2017-07-02T20:06:34.465Z,70.30
2017-07-02T20:09:00.664Z,70.60
2017-07-02T20:11:26.872Z,71.10
2017-07-02T20:13:53.837Z,71.30
2017-07-02T20:16:20.068Z,71.90
2017-07-02T20:18:46.276Z,71.40
2017-07-02T20:21:13.232Z,71.00
2017-07-02T20:23:39.432Z,70.90
2017-07-02T20:26:05.616Z,71.60
2017-07-02T20:28:31.790Z,71.30
2017-07-02T20:30:57.975Z,71.50
2017-07-02T20:33:24.186Z,71.60
2017-07-02T20:35:50.517Z,71.80
2017-07-02T20:38:16.731Z,71.90
2017-07-02T20:40:42.995Z,71.90
2017-07-02T20:43:09.168Z,72.10
2017-07-02T20:45:36.088Z,72.60
2017-07-02T20:48:02.281Z,72.60
2017-07-02T20:50:28.497Z,72.10
2017-07-02T20:52:54.692Z,72.40
2017-07-02T20:55:20.886Z,72.60
2017-07-02T20:57:49.215Z,72.70
2017-07-02T21:00:16.148Z,72.70
2017-07-02T21:02:42.310Z,72.60
2017-07-02T21:05:08.911Z,71.80
2017-07-02T21:07:35.178Z,72.10
2017-07-02T21:10:01.721Z,72.00
2017-07-02T21:12:27.993Z,72.80
2017-07-02T21:14:54.206Z,72.70
2017-07-02T21:17:20.395Z,72.00
2017-07-02T21:19:46.604Z,72.80
2017-07-02T21:22:12.779Z,73.30
2017-07-02T21:24:38.958Z,73.30
2017-07-02T21:27:05.896Z,73.20
2017-07-02T21:29:32.839Z,72.70
2017-07-02T21:31:59.373Z,72.90
2017-07-02T21:34:25.579Z,73.40
2017-07-02T21:36:51.752Z,73.50
2017-07-02T21:39:18.708Z,73.60
2017-07-02T21:41:44.932Z,73.60
2017-07-02T21:44:11.158Z,73.60
2017-07-02T21:46:38.071Z,73.20
2017-07-02T21:49:04.227Z,72.60
2017-07-02T21:51:31.214Z,73.20
2017-07-02T21:53:57.457Z,73.20
2017-07-02T21:56:23.742Z,73.10
2017-07-02T21:58:49.995Z,73.60
2017-07-02T22:01:16.232Z,73.50
2017-07-02T22:03:42.482Z,74.00
2017-07-02T22:06:08.705Z,74.70
2017-07-02T22:08:34.858Z,74.70
2017-07-02T22:11:01.066Z,74.30
2017-07-02T22:13:27.418Z,75.00
2017-07-02T22:15:53.574Z,75.10
2017-07-02T22:18:19.841Z,74.80
2017-07-02T22:20:46.023Z,75.20
2017-07-02T22:23:12.947Z,74.90
2017-07-02T22:25:39.159Z,74.80
2017-07-02T22:28:05.328Z,75.20
2017-07-02T22:30:32.244Z,75.60
2017-07-02T22:32:58.461Z,75.60
2017-07-02T22:35:24.626Z,75.70
2017-07-02T22:37:51.546Z,75.20
2017-07-02T22:40:17.767Z,75.00
2017-07-02T22:42:43.940Z,75.50
2017-07-02T22:45:10.133Z,75.60
2017-07-02T22:47:36.326Z,75.30
2017-07-02T22:50:02.519Z,75.00
2017-07-02T22:52:29.411Z,75.80
2017-07-02T22:54:55.624Z,75.80
2017-07-02T22:57:21.799Z,75.40
2017-07-02T22:59:47.985Z,75.00
2017-07-02T23:02:14.195Z,75.10
2017-07-02T23:04:40.381Z,75.00
2017-07-02T23:07:06.598Z,75.60
2017-07-02T23:09:32.800Z,75.60
2017-07-02T23:11:58.987Z,75.70
2017-07-02T23:14:25.208Z,75.50
2017-07-02T23:16:51.379Z,76.10
2017-07-02T23:19:17.552Z,76.00
2017-07-02T23:21:43.739Z,75.90
2017-07-02T23:24:09.985Z,75.70
2017-07-02T23:26:36.164Z,75.60
2017-07-02T23:29:02.375Z,75.80
2017-07-02T23:31:29.308Z,76.30
2017-07-02T23:33:55.476Z,75.70
2017-07-02T23:36:21.685Z,76.40
2017-07-02T23:38:48.645Z,76.70
2017-07-02T23:41:14.810Z,76.20
2017-07-02T23:43:40.993Z,76.80
2017-07-02T23:46:07.227Z,77.00
2017-07-02T23:48:33.412Z,77.00
2017-07-02T23:50:59.795Z,77.30
2017-07-02T23:53:27.237Z,77.30
2017-07-02T23:55:53.423Z,77.00
2017-07-02T23:58:19.642Z,77.30
